Time;durP1;ratioP1;P1;durP2;ratioP2;P2;SDS_P1;SDS_P2;PMS_P1;PMS_P2;Temp;Humidity;BMP_temperature;BMP_pressure;BME280_temperature;BME280_humidity;BME280_pressure;Samples;Min_cycle;Max_cycle;Signal;HPM_P1;HPM_P2
2022/12/30 00:00:36;;;;;;;0.85;0.47;;;20.50;43.70;;;;;;6401221;27;19958;-52
2022/12/30 00:03:38;;;;;;;0.88;0.40;;;20.50;43.60;;;;;;6400079;27;20509;-52
2022/12/30 00:06:39;;;;;;;;;;;20.30;43.50;;;;;;6400387;27;20039;-47
2022/12/30 00:09:41;;;;;;;0.50;0.38;;;20.00;43.40;;;;;;6400479;27;19950;-48
2022/12/30 00:35:39;;;;;;;;;;;20.50;43.40;;;;;;6383591;27;20035;-50
2022/12/30 00:38:40;;;;;;;0.93;0.40;;;20.30;43.50;;;;;;6398323;27;19965;-49
2022/12/30 00:44:58;;;;;;;1.27;0.32;;;20.40;43.40;;;;;;6398328;27;20046;-50
2022/12/30 00:48:00;;;;;;;0.68;0.40;;;20.40;43.50;;;;;;6398894;27;20060;-49
2022/12/30 00:57:31;;;;;;;0.63;0.55;;;20.30;43.40;;;;;;6399043;27;20043;-50
2022/12/30 01:00:32;;;;;;;0.50;0.50;;;20.50;43.60;;;;;;6398991;27;20043;-45
2022/12/30 01:03:33;;;;;;;;;;;20.20;43.50;;;;;;6399232;27;20046;-50
2022/12/30 01:06:37;;;;;;;0.35;0.28;;;20.40;43.80;;;;;;6398844;27;19920;-49
2022/12/30 01:09:38;;;;;;;0.50;0.40;;;20.30;43.50;;;;;;6381577;27;20045;-49
2022/12/30 01:12:40;;;;;;;;;;;20.30;43.60;;;;;;6400432;27;20119;-52
2022/12/30 01:15:42;;;;;;;0.57;0.50;;;20.00;43.60;;;;;;6401355;27;19957;-49
2022/12/30 01:18:43;;;;;;;0.50;0.40;;;20.10;43.50;;;;;;6400819;27;20410;-49
2022/12/30 01:21:45;;;;;;;0.70;0.50;;;20.10;43.60;;;;;;6400713;27;20043;-48
2022/12/30 01:24:46;;;;;;;0.80;0.57;;;20.50;43.80;;;;;;6401517;27;20043;-49
2022/12/30 01:27:50;;;;;;;0.95;0.30;;;20.30;43.80;;;;;;6400387;27;20505;-47
2022/12/30 01:30:52;;;;;;;0.82;0.50;;;20.30;43.80;;;;;;6399990;27;20062;-50
2022/12/30 01:33:53;;;;;;;;;;;20.50;44.00;;;;;;6400106;27;20046;-50
2022/12/30 01:36:55;;;;;;;1.35;0.70;;;20.20;43.90;;;;;;6399558;27;20015;-49
2022/12/30 01:39:56;;;;;;;0.60;0.50;;;20.30;43.90;;;;;;6399815;27;20483;-51
2022/12/30 01:42:58;;;;;;;0.52;0.40;;;20.40;44.00;;;;;;6400356;27;20458;-50
2022/12/30 01:46:00;;;;;;;0.55;0.40;;;20.20;44.00;;;;;;6400206;27;20401;-49
2022/12/30 01:49:02;;;;;;;0.98;0.60;;;20.40;44.10;;;;;;6399431;27;20054;-50
2022/12/30 01:52:04;;;;;;;0.70;0.50;;;20.50;44.30;;;;;;6401827;27;20074;-49
2022/12/30 01:55:10;;;;;;;1.15;0.60;;;20.40;44.30;;;;;;6404665;27;20038;-50
2022/12/30 01:58:17;;;;;;;1.00;0.52;;;20.40;44.30;;;;;;6406843;27;20443;-47
2022/12/30 02:01:19;;;;;;;0.40;0.40;;;20.30;44.40;;;;;;6387684;27;20082;-48
2022/12/30 02:04:24;;;;;;;0.45;0.40;;;20.40;44.50;;;;;;6405754;27;20196;-50
2022/12/30 02:07:30;;;;;;;1.02;0.50;;;20.30;44.50;;;;;;6405338;27;20379;-47
2022/12/30 02:10:33;;;;;;;0.30;0.30;;;20.30;44.60;;;;;;6387991;27;20039;-49
2022/12/30 02:13:35;;;;;;;0.50;0.40;;;20.40;44.70;;;;;;6386463;27;20462;-50
2022/12/30 02:16:46;;;;;;;0.50;0.30;;;20.10;44.60;;;;;;6404116;27;20035;-46
2022/12/30 02:20:12;;;;;;;0.60;0.40;;;20.10;44.70;;;;;;6403695;27;20136;-48
2022/12/30 02:23:41;;;;;;;0.68;0.50;;;20.40;44.90;;;;;;6388729;27;20401;-49
2022/12/30 02:26:57;;;;;;;1.00;0.45;;;20.40;45.00;;;;;;6403665;27;20035;-47
2022/12/30 02:30:13;;;;;;;0.45;0.30;;;20.40;45.00;;;;;;6402500;27;20050;-47
2022/12/30 02:33:22;;;;;;;0.82;0.40;;;20.20;45.00;;;;;;6387824;27;20043;-46
2022/12/30 02:36:30;;;;;;;0.50;0.38;;;20.20;45.00;;;;;;6403219;27;20039;-51
2022/12/30 02:39:37;;;;;;;0.47;0.38;;;20.50;45.20;;;;;;6403056;27;20046;-49
2022/12/30 02:46:06;;;;;;;0.83;0.30;;;20.30;45.30;;;;;;6403889;27;20042;-48
2022/12/30 02:49:10;;;;;;;0.70;0.40;;;20.30;45.30;;;;;;6403454;27;20035;-45
2022/12/30 02:52:15;;;;;;;0.47;0.40;;;20.40;45.40;;;;;;6403281;27;20038;-48
2022/12/30 02:55:17;;;;;;;0.70;0.22;;;20.30;45.40;;;;;;6404174;27;20043;-47
2022/12/30 02:58:19;;;;;;;0.70;0.40;;;20.20;45.40;;;;;;6403001;27;20035;-48
2022/12/30 03:04:58;;;;;;;0.60;0.50;;;20.50;45.50;;;;;;6402483;27;20066;-47
2022/12/30 03:08:06;;;;;;;0.38;0.30;;;20.30;45.40;;;;;;6403083;27;20035;-50
2022/12/30 03:11:16;;;;;;;0.30;0.30;;;20.50;45.60;;;;;;6403230;27;20489;-47
2022/12/30 03:14:24;;;;;;;0.47;0.40;;;20.50;45.60;;;;;;6404454;27;20117;-47
2022/12/30 03:17:29;;;;;;;0.50;0.40;;;20.30;45.50;;;;;;6404275;27;20490;-52
2022/12/30 03:20:32;;;;;;;0.55;0.40;;;20.30;45.50;;;;;;6385818;27;20046;-48
2022/12/30 03:30:12;;;;;;;0.38;0.25;;;20.10;45.50;;;;;;6375890;27;20047;-48
2022/12/30 03:33:14;;;;;;;0.65;0.40;;;20.50;45.80;;;;;;6406605;27;20494;-48
2022/12/30 03:36:19;;;;;;;0.63;0.40;;;20.50;45.80;;;;;;6406404;27;20127;-47
2022/12/30 03:39:26;;;;;;;0.50;0.40;;;20.40;45.80;;;;;;6406742;27;20049;-47
2022/12/30 03:42:30;;;;;;;0.60;0.40;;;20.40;45.90;;;;;;6406807;27;20478;-46
2022/12/30 03:45:32;;;;;;;0.30;0.30;;;20.30;45.80;;;;;;6406775;27;20117;-49
2022/12/30 03:48:33;;;;;;;;;;;20.40;46.00;;;;;;6406725;27;20050;-49
2022/12/30 03:51:35;;;;;;;0.50;0.30;;;20.20;46.00;;;;;;6405780;27;20423;-49
2022/12/30 03:54:37;;;;;;;0.47;0.30;;;20.40;46.00;;;;;;6406383;27;20535;-49
2022/12/30 03:57:39;;;;;;;0.47;0.40;;;20.20;46.00;;;;;;6405013;27;20046;-50
2022/12/30 04:00:40;;;;;;;;;;;20.40;46.30;;;;;;6405326;27;20490;-49
2022/12/30 04:03:41;;;;;;;0.70;0.40;;;20.10;46.30;;;;;;6405048;27;20283;-50
2022/12/30 04:06:43;;;;;;;;;;;20.40;46.30;;;;;;6405571;27;20039;-46
2022/12/30 04:09:45;;;;;;;0.28;0.22;;;20.20;46.40;;;;;;6404804;27;19950;-46
2022/12/30 04:12:46;;;;;;;0.38;0.28;;;20.30;46.40;;;;;;6403325;27;20043;-47
2022/12/30 04:15:48;;;;;;;;;;;20.40;46.60;;;;;;6402278;27;20042;-51
2022/12/30 04:18:50;;;;;;;0.32;0.20;;;20.40;46.80;;;;;;6402687;27;19926;-50
2022/12/30 04:21:52;;;;;;;0.60;0.30;;;20.40;46.70;;;;;;6402134;27;20053;-50
2022/12/30 04:24:53;;;;;;;0.70;0.30;;;20.40;46.90;;;;;;6401564;27;20031;-50
2022/12/30 04:27:59;;;;;;;0.52;0.30;;;20.40;47.10;;;;;;6403525;27;20035;-48
2022/12/30 04:31:00;;;;;;;1.15;0.40;;;20.30;47.20;;;;;;6404421;27;20122;-47
2022/12/30 04:34:02;;;;;;;0.77;0.32;;;20.20;47.20;;;;;;6403397;27;20046;-49
2022/12/30 04:37:09;;;;;;;0.35;0.28;;;20.30;47.40;;;;;;6403818;27;20043;-49
2022/12/30 04:40:11;;;;;;;0.50;0.30;;;20.50;47.70;;;;;;6403745;27;20043;-52
2022/12/30 04:43:12;;;;;;;;;;;20.50;47.80;;;;;;6403337;27;20099;-49
2022/12/30 04:46:14;;;;;;;0.60;0.30;;;20.30;47.80;;;;;;6403528;27;19919;-47
2022/12/30 04:49:16;;;;;;;0.60;0.40;;;20.20;47.60;;;;;;6383718;27;20034;-47
2022/12/30 04:52:18;;;;;;;0.47;0.30;;;20.40;48.00;;;;;;6402658;27;20120;-48
2022/12/30 04:55:19;;;;;;;0.95;0.47;;;20.30;48.10;;;;;;6402590;27;20088;-47
2022/12/30 04:58:21;;;;;;;0.88;0.43;;;20.50;48.30;;;;;;6403015;27;20039;-49
2022/12/30 05:01:22;;;;;;;1.48;0.50;;;20.50;48.40;;;;;;6402360;27;20042;-49
2022/12/30 05:04:24;;;;;;;0.75;0.32;;;20.20;48.30;;;;;;6402706;27;20049;-48
2022/12/30 05:07:26;;;;;;;0.47;0.35;;;20.30;48.50;;;;;;6402391;27;20043;-47
2022/12/30 05:10:28;;;;;;;1.00;0.40;;;20.30;48.60;;;;;;6383522;27;20043;-50
2022/12/30 05:13:29;;;;;;;0.57;0.40;;;20.40;48.80;;;;;;6403041;27;20039;-51
2022/12/30 05:16:31;;;;;;;1.77;0.70;;;20.50;48.90;;;;;;6402540;27;20046;-47
2022/12/30 05:19:32;;;;;;;1.05;0.50;;;20.50;49.00;;;;;;6401399;27;20118;-47
2022/12/30 05:22:34;;;;;;;1.38;0.50;;;20.40;49.10;;;;;;6401724;27;20436;-49
2022/12/30 05:28:50;;;;;;;1.27;0.70;;;20.40;49.40;;;;;;6407542;27;20042;-49
2022/12/30 05:31:52;;;;;;;0.63;0.40;;;20.60;49.60;;;;;;6407271;27;20046;-51
2022/12/30 05:34:53;;;;;;;0.90;0.40;;;20.40;49.60;;;;;;6406565;27;20038;-49
2022/12/30 05:37:55;;;;;;;1.92;0.73;;;20.50;49.70;;;;;;6406979;27;20046;-46
2022/12/30 05:40:57;;;;;;;0.63;0.30;;;20.40;49.80;;;;;;6406564;27;20038;-49
2022/12/30 05:44:03;;;;;;;1.67;0.63;;;20.50;49.90;;;;;;6406672;27;20035;-50
2022/12/30 05:47:04;;;;;;;1.20;0.70;;;20.40;50.00;;;;;;6406281;27;20050;-49
2022/12/30 05:50:06;;;;;;;;;;;20.40;50.00;;;;;;6407211;27;20053;-49
2022/12/30 05:53:08;;;;;;;0.80;0.32;;;20.00;50.00;;;;;;6406065;27;19919;-48
2022/12/30 05:56:09;;;;;;;1.48;0.70;;;20.50;50.10;;;;;;6406259;27;20039;-49
2022/12/30 05:59:11;;;;;;;;;;;20.50;50.30;;;;;;6406910;27;20106;-49
2022/12/30 06:02:12;;;;;;;1.20;0.38;;;20.40;50.40;;;;;;6406569;27;19926;-51
2022/12/30 06:05:14;;;;;;;0.60;0.40;;;20.50;50.30;;;;;;6405986;27;20041;-50
2022/12/30 06:08:16;;;;;;;;;;;20.30;50.30;;;;;;6406810;27;20501;-49
2022/12/30 06:11:18;;;;;;;0.93;0.73;;;20.30;50.50;;;;;;6405779;27;19968;-50
2022/12/30 06:14:20;;;;;;;;;;;20.40;50.40;;;;;;6406404;27;20119;-47
2022/12/30 06:17:22;;;;;;;0.98;0.47;;;20.20;50.60;;;;;;6406032;27;19919;-48
2022/12/30 06:20:23;;;;;;;1.13;0.40;;;20.30;50.50;;;;;;6405533;27;20049;-50
2022/12/30 06:23:25;;;;;;;0.60;0.50;;;20.50;50.90;;;;;;6405072;27;20042;-47
2022/12/30 06:26:27;;;;;;;0.68;0.30;;;20.50;51.10;;;;;;6405955;27;20437;-45
2022/12/30 06:29:28;;;;;;;;;;;20.40;51.20;;;;;;6405504;27;20062;-49
2022/12/30 06:32:31;;;;;;;0.85;0.40;;;20.40;51.40;;;;;;6404819;27;19919;-47
2022/12/30 06:35:32;;;;;;;0.88;0.40;;;20.50;51.20;;;;;;6404927;27;20039;-49
2022/12/30 06:38:34;;;;;;;0.70;0.30;;;20.10;51.20;;;;;;6404238;27;20497;-49
2022/12/30 06:41:35;;;;;;;0.68;0.30;;;20.30;51.50;;;;;;6404278;27;20049;-48
2022/12/30 06:44:37;;;;;;;0.28;0.20;;;20.40;51.70;;;;;;6404899;27;20050;-50
2022/12/30 06:47:38;;;;;;;;;;;20.50;51.80;;;;;;6405361;27;20042;-51
2022/12/30 06:50:40;;;;;;;0.20;0.10;;;20.30;51.90;;;;;;6403040;27;19945;-51
2022/12/30 06:53:42;;;;;;;1.02;0.40;;;20.50;51.80;;;;;;6402846;27;20046;-48
2022/12/30 06:56:43;;;;;;;0.38;0.20;;;20.60;52.00;;;;;;6402437;27;20065;-51
2022/12/30 06:59:44;;;;;;;;;;;20.60;52.20;;;;;;6402599;27;20046;-49
2022/12/30 07:02:46;;;;;;;0.60;0.20;;;20.40;52.30;;;;;;6402662;27;19923;-51
2022/12/30 07:05:47;;;;;;;0.30;0.20;;;20.40;52.10;;;;;;6402377;27;20049;-52
2022/12/30 07:08:49;;;;;;;0.22;0.20;;;20.50;52.30;;;;;;6402115;27;20050;-50
2022/12/30 07:11:51;;;;;;;0.17;0.10;;;20.50;52.50;;;;;;6402512;27;20043;-50
2022/12/30 07:14:52;;;;;;;;;;;20.50;53.20;;;;;;6403259;27;20091;-51
2022/12/30 07:17:54;;;;;;;0.68;0.20;;;20.30;52.70;;;;;;6404300;27;19919;-51
2022/12/30 07:20:55;;;;;;;0.50;0.25;;;20.50;52.50;;;;;;6403509;27;20046;-50
2022/12/30 07:23:58;;;;;;;0.22;0.20;;;20.60;52.80;;;;;;6401553;27;20043;-51
2022/12/30 07:26:59;;;;;;;0.75;0.20;;;20.40;52.80;;;;;;6400760;27;20061;-50
2022/12/30 07:30:00;;;;;;;;;;;20.50;53.00;;;;;;6400701;27;20066;-50
2022/12/30 07:33:02;;;;;;;0.25;0.10;;;20.50;53.20;;;;;;6400877;27;19919;-50
2022/12/30 07:36:03;;;;;;;;;;;20.60;53.10;;;;;;6401121;27;20076;-49
2022/12/30 07:39:06;;;;;;;0.20;0.10;;;20.60;53.30;;;;;;6402436;27;19918;-47
2022/12/30 07:42:08;;;;;;;0.20;0.20;;;20.50;53.00;;;;;;6402020;27;20050;-52
2022/12/30 07:45:09;;;;;;;;;;;20.50;53.30;;;;;;6402258;27;20027;-49
2022/12/30 07:48:11;;;;;;;0.10;0.10;;;20.60;53.40;;;;;;6399698;27;19969;-50
2022/12/30 07:51:13;;;;;;;;;;;20.60;53.30;;;;;;6400525;27;20547;-51
2022/12/30 07:54:15;;;;;;;0.30;0.30;;;20.60;53.50;;;;;;6400233;27;20294;-51
2022/12/30 07:57:17;;;;;;;0.35;0.35;;;20.50;53.30;;;;;;6402686;27;20088;-50
2022/12/30 08:00:18;;;;;;;0.10;0.10;;;20.40;53.60;;;;;;6407221;27;20035;-52
2022/12/30 08:03:27;;;;;;;0.38;0.20;;;20.50;53.90;;;;;;6405483;27;20035;-52
2022/12/30 08:06:29;;;;;;;0.45;0.22;;;20.60;54.20;;;;;;6406304;27;20046;-50
2022/12/30 08:09:31;;;;;;;;;;;20.70;54.40;;;;;;6409927;27;20042;-48
2022/12/30 08:12:34;;;;;;;0.30;0.20;;;20.60;54.60;;;;;;6409559;27;19923;-47
2022/12/30 08:15:38;;;;;;;0.75;0.13;;;20.60;54.40;;;;;;6415274;27;20039;-49
2022/12/30 08:18:39;;;;;;;0.20;0.20;;;20.40;54.60;;;;;;6397343;27;20045;-50
2022/12/30 08:21:40;;;;;;;;;;;20.70;55.00;;;;;;6409516;27;20047;-51
2022/12/30 08:24:42;;;;;;;0.30;0.20;;;20.60;55.20;;;;;;6409527;27;19923;-50
2022/12/30 08:27:44;;;;;;;0.20;0.10;;;20.80;55.10;;;;;;6408012;27;20034;-51
2022/12/30 08:30:45;;;;;;;0.93;0.20;;;20.70;55.40;;;;;;6404765;27;20038;-52
2022/12/30 08:33:47;;;;;;;;;;;20.70;55.70;;;;;;6411918;27;20031;-47
2022/12/30 08:36:48;;;;;;;0.20;0.20;;;20.60;55.80;;;;;;6408413;27;19971;-49
2022/12/30 08:39:50;;;;;;;;;;;20.80;55.70;;;;;;6410022;27;20041;-48
2022/12/30 08:42:51;;;;;;;0.30;0.20;;;20.60;55.80;;;;;;6422802;27;19923;-51
2022/12/30 08:45:56;;;;;;;;;;;20.70;55.80;;;;;;6410852;27;20046;-52
2022/12/30 08:48:57;;;;;;;0.10;0.10;;;20.80;56.20;;;;;;6420546;27;19938;-52
2022/12/30 08:51:58;;;;;;;;;;;20.90;56.30;;;;;;6416044;27;20046;-52
2022/12/30 08:55:01;;;;;;;0.40;0.15;;;20.80;56.60;;;;;;6413528;27;19931;-51
2022/12/30 08:58:02;;;;;;;0.30;0.20;;;20.80;56.40;;;;;;6416009;27;20047;-47
2022/12/30 09:01:08;;;;;;;1.25;0.10;;;20.70;57.00;;;;;;6405410;27;20038;-52
2022/12/30 09:04:10;;;;;;;0.10;0.10;;;20.80;57.50;;;;;;6413098;27;20035;-52
2022/12/30 09:07:12;;;;;;;0.30;0.20;;;20.80;57.70;;;;;;6405828;27;20046;-48
2022/12/30 09:10:34;;;;;;;0.10;0.10;;;21.00;58.00;;;;;;6393743;27;20526;-51
2022/12/30 09:13:37;;;;;;;0.22;0.20;;;20.90;58.10;;;;;;6384793;27;20043;-52
2022/12/30 09:16:39;;;;;;;0.10;0.10;;;20.60;58.10;;;;;;6363714;28;20088;-49
2022/12/30 09:19:41;;;;;;;0.10;0.10;;;20.90;58.40;;;;;;6365633;27;20047;-50
2022/12/30 09:22:42;;;;;;;0.20;0.05;;;20.80;58.60;;;;;;6384965;28;20068;-52
2022/12/30 09:25:44;;;;;;;0.10;0.10;;;20.90;58.80;;;;;;6379354;28;20380;-52
2022/12/30 09:28:46;;;;;;;0.13;0.10;;;21.00;59.00;;;;;;6384220;28;20073;-51
2022/12/30 09:31:48;;;;;;;0.20;0.10;;;21.00;59.20;;;;;;6382095;28;20043;-51
2022/12/30 09:34:49;;;;;;;0.20;0.10;;;20.90;59.30;;;;;;6384303;27;20065;-52
2022/12/30 09:37:51;;;;;;;0.10;0.10;;;20.90;59.40;;;;;;6385501;28;20047;-48
2022/12/30 09:41:00;;;;;;;0.00;0.00;;;21.00;59.60;;;;;;6383537;28;20421;-52
2022/12/30 09:44:10;;;;;;;0.10;0.10;;;21.00;60.40;;;;;;6383664;28;20039;-49
2022/12/30 09:47:20;;;;;;;0.22;0.10;;;21.10;59.90;;;;;;6380914;28;20039;-49
2022/12/30 09:50:34;;;;;;;0.22;0.20;;;21.00;60.00;;;;;;6393114;27;20059;-53
2022/12/30 09:53:42;;;;;;;0.10;0.10;;;21.00;60.20;;;;;;6371037;28;20050;-53
2022/12/30 09:56:47;;;;;;;0.30;0.25;;;21.10;60.30;;;;;;6398326;27;20023;-51
2022/12/30 09:59:53;;;;;;;0.32;0.22;;;21.00;60.40;;;;;;6394960;28;20042;-52
2022/12/30 10:03:02;;;;;;;0.20;0.20;;;21.00;60.50;;;;;;6393248;27;20103;-50
2022/12/30 10:06:29;;;;;;;0.30;0.10;;;20.80;60.60;;;;;;6374576;28;20031;-53
2022/12/30 10:09:43;;;;;;;0.22;0.10;;;21.20;60.80;;;;;;6389148;27;20039;-52
2022/12/30 10:12:58;;;;;;;0.43;0.20;;;21.10;60.90;;;;;;6388756;27;20043;-52
2022/12/30 10:16:08;;;;;;;0.35;0.20;;;20.90;60.90;;;;;;6393359;27;20039;-52
2022/12/30 10:19:23;;;;;;;0.20;0.20;;;21.10;61.10;;;;;;6398740;28;20035;-53
2022/12/30 10:22:32;;;;;;;0.50;0.30;;;21.10;61.20;;;;;;6392942;27;20047;-48
2022/12/30 10:25:39;;;;;;;0.30;0.20;;;21.20;61.30;;;;;;6391301;27;20433;-52
2022/12/30 10:28:46;;;;;;;0.30;0.20;;;21.30;61.40;;;;;;6374561;28;20048;-52
2022/12/30 10:31:51;;;;;;;0.20;0.20;;;21.00;61.30;;;;;;6386880;27;20030;-52
2022/12/30 10:34:59;;;;;;;0.40;0.30;;;20.90;61.30;;;;;;6396676;27;20043;-50
2022/12/30 10:38:09;;;;;;;0.30;0.20;;;21.00;61.50;;;;;;6374655;28;20064;-52
2022/12/30 10:41:22;;;;;;;0.50;0.20;;;21.20;61.70;;;;;;6395943;27;20047;-52
2022/12/30 10:44:54;;;;;;;0.40;0.20;;;21.20;61.80;;;;;;6391422;27;20072;-53
2022/12/30 10:48:09;;;;;;;0.20;0.20;;;21.00;61.80;;;;;;6393389;27;20035;-53
2022/12/30 10:51:15;;;;;;;0.20;0.10;;;20.90;61.70;;;;;;6392173;27;20042;-53
2022/12/30 10:54:17;;;;;;;0.10;0.10;;;21.10;61.90;;;;;;6386644;27;20042;-53
2022/12/30 10:57:22;;;;;;;0.20;0.10;;;21.20;62.00;;;;;;6396133;28;20039;-51
2022/12/30 11:00:24;;;;;;;0.13;0.10;;;21.30;62.10;;;;;;6397763;28;20044;-53
2022/12/30 11:03:35;;;;;;;0.40;0.20;;;21.10;62.00;;;;;;6401621;27;20035;-52
2022/12/30 11:06:37;;;;;;;;;;;21.00;62.00;;;;;;6380443;28;20046;-53
2022/12/30 11:09:39;;;;;;;0.20;0.10;;;21.30;62.20;;;;;;6398762;27;19903;-53
2022/12/30 11:16:32;;;;;;;0.10;0.10;;;21.10;62.20;;;;;;6387239;28;20070;-52
2022/12/30 11:19:34;;;;;;;0.10;0.10;;;21.30;62.20;;;;;;6383463;27;20045;-52
2022/12/30 11:22:36;;;;;;;0.10;0.10;;;21.40;62.40;;;;;;6396310;27;20054;-54
2022/12/30 11:25:44;;;;;;;0.20;0.20;;;21.10;62.90;;;;;;6381470;27;20031;-53
2022/12/30 11:28:49;;;;;;;0.15;0.10;;;21.30;62.50;;;;;;6382044;28;20073;-53
2022/12/30 11:31:53;;;;;;;0.43;0.10;;;21.20;62.40;;;;;;6378675;28;20047;-53
2022/12/30 11:34:54;;;;;;;0.10;0.10;;;21.30;62.50;;;;;;6378040;27;20047;-52
2022/12/30 11:37:56;;;;;;;0.20;0.17;;;21.30;62.60;;;;;;6379035;27;20088;-51
2022/12/30 11:41:13;;;;;;;;;;;21.10;62.50;;;;;;6378521;28;20039;-53
2022/12/30 11:44:18;;;;;;;0.15;0.10;;;21.50;62.70;;;;;;6378521;28;19982;-50
2022/12/30 11:47:20;;;;;;;0.20;0.20;;;21.30;62.40;;;;;;6363127;28;20036;-53
2022/12/30 11:50:21;;;;;;;0.10;0.10;;;21.30;62.60;;;;;;6378580;27;20563;-52
2022/12/30 11:53:27;;;;;;;;;;;21.40;62.70;;;;;;6378111;27;20054;-53
2022/12/30 11:56:28;;;;;;;0.25;0.10;;;21.40;62.70;;;;;;6378220;27;20364;-52
2022/12/30 11:59:35;;;;;;;0.20;0.10;;;21.20;62.40;;;;;;6377538;27;20041;-52
2022/12/30 12:02:39;;;;;;;0.30;0.20;;;21.30;62.70;;;;;;6377929;27;20055;-52
2022/12/30 12:05:42;;;;;;;0.22;0.10;;;21.30;62.70;;;;;;6359319;28;20035;-51
2022/12/30 12:08:51;;;;;;;0.50;0.20;;;21.40;62.80;;;;;;6358874;27;20046;-53
2022/12/30 12:11:53;;;;;;;0.10;0.10;;;21.30;62.90;;;;;;6375346;27;20055;-50
2022/12/30 12:15:03;;;;;;;0.10;0.10;;;21.00;62.70;;;;;;6375624;28;20035;-51
2022/12/30 12:18:18;;;;;;;0.40;0.30;;;21.40;63.10;;;;;;6357616;28;20043;-53
2022/12/30 12:21:24;;;;;;;0.30;0.20;;;21.30;63.00;;;;;;6375871;27;20035;-52
2022/12/30 12:24:31;;;;;;;0.20;0.20;;;21.10;62.90;;;;;;6358120;27;20067;-52
2022/12/30 12:27:32;;;;;;;0.20;0.08;;;21.20;62.90;;;;;;6376077;27;20088;-51
2022/12/30 12:30:39;;;;;;;;;;;21.30;63.00;;;;;;6376514;28;20073;-53
2022/12/30 12:33:48;;;;;;;0.20;0.20;;;21.60;63.20;;;;;;6357902;27;19968;-53
2022/12/30 12:37:01;;;;;;;0.20;0.20;;;21.40;62.90;;;;;;6375341;27;20042;-52
2022/12/30 12:40:22;;;;;;;0.40;0.20;;;21.20;62.90;;;;;;6383638;27;20043;-51
2022/12/30 12:43:28;;;;;;;1.20;0.15;;;21.40;63.10;;;;;;6395975;27;20035;-53
2022/12/30 12:46:43;;;;;;;0.45;0.20;;;21.30;63.00;;;;;;6376569;28;20039;-52
2022/12/30 12:50:01;;;;;;;0.57;0.20;;;21.40;63.20;;;;;;6375490;27;20047;-52
2022/12/30 12:53:17;;;;;;;0.55;0.28;;;21.30;63.20;;;;;;6388109;27;20047;-49
2022/12/30 12:56:34;;;;;;;0.73;0.30;;;21.40;63.20;;;;;;6376470;27;20039;-51
2022/12/30 12:59:59;;;;;;;0.20;0.20;;;21.30;63.20;;;;;;6392361;28;20379;-50
2022/12/30 13:03:19;;;;;;;0.28;0.28;;;21.40;63.30;;;;;;6376752;27;20046;-48
2022/12/30 13:06:28;;;;;;;0.20;0.20;;;21.50;63.30;;;;;;6390254;27;20069;-52
2022/12/30 13:09:56;;;;;;;0.20;0.20;;;21.50;63.30;;;;;;6394866;27;20024;-50
2022/12/30 13:13:11;;;;;;;0.30;0.20;;;21.40;63.30;;;;;;6400736;27;20043;-51
2022/12/30 13:16:17;;;;;;;0.32;0.20;;;21.50;63.30;;;;;;6400833;27;20042;-51
2022/12/30 13:19:23;;;;;;;0.30;0.25;;;21.50;63.30;;;;;;6424367;22;20063;-50
2022/12/30 13:22:32;;;;;;;0.60;0.20;;;21.50;63.30;;;;;;6346937;28;20079;-53
2022/12/30 13:25:39;;;;;;;0.20;0.20;;;21.50;63.40;;;;;;6331589;28;20050;-50
2022/12/30 13:28:47;;;;;;;0.22;0.20;;;21.50;63.40;;;;;;7295755;22;20033;-50
2022/12/30 13:31:54;;;;;;;0.43;0.20;;;21.60;63.50;;;;;;6300847;28;20033;-50
2022/12/30 13:35:05;;;;;;;0.35;0.20;;;21.40;63.30;;;;;;6283017;28;20045;-52
2022/12/30 13:38:23;;;;;;;0.32;0.20;;;21.50;63.40;;;;;;6283103;28;20037;-49
2022/12/30 13:41:40;;;;;;;0.10;0.10;;;21.60;63.40;;;;;;6299628;28;20041;-51
2022/12/30 13:44:44;;;;;;;0.35;0.20;;;21.40;63.20;;;;;;6265438;28;20049;-50
2022/12/30 13:47:47;;;;;;;0.45;0.25;;;21.50;63.20;;;;;;6296956;28;20045;-53
2022/12/30 13:51:00;;;;;;;0.30;0.20;;;21.60;63.20;;;;;;6289261;28;20055;-51
2022/12/30 13:54:10;;;;;;;0.45;0.28;;;21.60;63.30;;;;;;6283006;28;20037;-52
2022/12/30 13:57:23;;;;;;;0.63;0.30;;;21.60;63.20;;;;;;6301629;28;20056;-51
2022/12/30 14:00:28;;;;;;;0.20;0.10;;;21.50;63.10;;;;;;6301151;28;20049;-52
2022/12/30 14:03:36;;;;;;;0.30;0.30;;;21.50;63.10;;;;;;6285476;28;20052;-52
2022/12/30 14:06:43;;;;;;;0.20;0.20;;;21.70;63.20;;;;;;6304860;28;20105;-52
2022/12/30 14:10:20;;;;;;;0.20;0.20;;;21.70;63.20;;;;;;6289965;28;20041;-50
2022/12/30 14:13:37;;;;;;;0.40;0.25;;;21.60;63.20;;;;;;6257281;28;20047;-49
2022/12/30 14:16:48;;;;;;;1.17;0.20;;;21.70;63.20;;;;;;6246694;28;20045;-51
2022/12/30 14:19:52;;;;;;;0.43;0.20;;;21.50;63.00;;;;;;6280630;28;20123;-51
2022/12/30 14:22:56;;;;;;;0.63;0.20;;;21.70;63.10;;;;;;6281046;28;20052;-51
2022/12/30 14:26:36;;;;;;;0.50;0.22;;;21.70;63.10;;;;;;6246381;28;20098;-51
2022/12/30 14:29:38;;;;;;;0.30;0.30;;;21.60;63.20;;;;;;6268212;28;20037;-50
2022/12/30 14:32:40;;;;;;;0.20;0.20;;;21.70;63.10;;;;;;6292906;28;20033;-52
2022/12/30 14:35:50;;;;;;;0.20;0.20;;;21.70;63.10;;;;;;6291124;28;20048;-52
2022/12/30 14:38:57;;;;;;;0.25;0.20;;;21.70;63.10;;;;;;6292627;28;20045;-52
2022/12/30 14:42:02;;;;;;;0.40;0.20;;;21.50;63.00;;;;;;6275247;28;20056;-51
2022/12/30 14:45:18;;;;;;;0.40;0.20;;;21.70;63.10;;;;;;6299429;28;20041;-51
2022/12/30 14:48:49;;;;;;;0.20;0.20;;;21.70;63.00;;;;;;6282216;28;20044;-50
2022/12/30 14:51:56;;;;;;;0.20;0.10;;;21.70;63.00;;;;;;6274924;28;20037;-49
2022/12/30 14:55:09;;;;;;;0.40;0.30;;;21.80;63.00;;;;;;6296289;28;20044;-47
2022/12/30 14:58:16;;;;;;;0.38;0.28;;;21.70;62.90;;;;;;6289553;28;20041;-53
2022/12/30 15:01:20;;;;;;;0.20;0.20;;;21.70;62.90;;;;;;6275873;28;20128;-51
2022/12/30 15:04:24;;;;;;;0.25;0.25;;;21.80;63.00;;;;;;6259361;28;20068;-52
2022/12/30 15:07:29;;;;;;;0.70;0.30;;;21.80;62.90;;;;;;6305148;28;20059;-52
2022/12/30 15:14:14;;;;;;;0.38;0.20;;;21.70;62.80;;;;;;6330398;23;20047;-51
2022/12/30 15:17:29;;;;;;;0.50;0.25;;;21.70;62.70;;;;;;6136893;28;20051;-52
2022/12/30 15:20:32;;;;;;;0.43;0.20;;;21.70;62.70;;;;;;6145643;29;20040;-52
2022/12/30 15:23:40;;;;;;;0.40;0.22;;;21.70;62.70;;;;;;6142286;29;20047;-51
2022/12/30 15:26:50;;;;;;;;;;;21.80;62.70;;;;;;6146650;29;20044;-51
2022/12/30 15:29:53;;;;;;;0.40;0.20;;;21.70;62.70;;;;;;6134731;29;20005;-50
2022/12/30 15:32:58;;;;;;;0.38;0.20;;;21.60;62.50;;;;;;6149360;29;20067;-52
2022/12/30 15:36:00;;;;;;;0.65;0.20;;;21.70;62.60;;;;;;6145339;29;20044;-52
2022/12/30 15:39:06;;;;;;;0.30;0.30;;;21.70;62.60;;;;;;6145243;29;20050;-47
2022/12/30 15:42:14;;;;;;;0.35;0.20;;;21.50;62.50;;;;;;6148175;29;20428;-52
2022/12/30 15:45:30;;;;;;;0.20;0.20;;;21.70;62.60;;;;;;6145679;29;20055;-50
2022/12/30 15:48:33;;;;;;;0.10;0.10;;;21.70;62.60;;;;;;6145225;29;20044;-53
2022/12/30 15:51:36;;;;;;;0.10;0.10;;;21.70;62.60;;;;;;6146954;29;20048;-52
2022/12/30 15:54:44;;;;;;;0.20;0.20;;;21.70;62.60;;;;;;6143707;29;20048;-51
2022/12/30 15:57:46;;;;;;;0.20;0.20;;;21.80;62.70;;;;;;6143774;29;20052;-51
2022/12/30 16:00:54;;;;;;;0.20;0.20;;;21.80;62.60;;;;;;6153359;29;20047;-50
2022/12/30 16:04:00;;;;;;;0.25;0.15;;;21.70;62.50;;;;;;6146138;29;20071;-51
2022/12/30 16:07:01;;;;;;;0.10;0.10;;;21.70;62.50;;;;;;6143214;29;20039;-51
2022/12/30 16:10:04;;;;;;;;;;;21.50;62.40;;;;;;6139044;29;20043;-49
2022/12/30 16:13:28;;;;;;;0.10;0.10;;;21.60;62.50;;;;;;6131796;29;19923;-50
2022/12/30 16:16:33;;;;;;;0.25;0.20;;;21.80;62.50;;;;;;6142312;29;20043;-53
2022/12/30 16:19:42;;;;;;;0.28;0.20;;;21.70;62.50;;;;;;6138561;28;20039;-53
2022/12/30 16:22:45;;;;;;;0.20;0.20;;;21.70;62.60;;;;;;6138422;29;20048;-49
2022/12/30 16:25:49;;;;;;;0.10;0.10;;;21.60;62.50;;;;;;6136039;29;20051;-50
2022/12/30 16:28:50;;;;;;;0.10;0.10;;;21.70;62.60;;;;;;6136377;29;20043;-51
2022/12/30 16:31:52;;;;;;;0.10;0.10;;;21.70;62.60;;;;;;6136594;29;20111;-50
2022/12/30 16:34:54;;;;;;;0.10;0.10;;;21.70;62.90;;;;;;6134906;29;20047;-50
2022/12/30 16:37:56;;;;;;;0.10;0.10;;;21.70;62.60;;;;;;6139417;29;20044;-50
2022/12/30 16:40:58;;;;;;;1.00;0.35;;;21.70;62.60;;;;;;6141281;29;20072;-51
2022/12/30 16:44:00;;;;;;;0.10;0.10;;;21.70;62.50;;;;;;6141955;29;20055;-50
2022/12/30 16:47:02;;;;;;;;;;;21.60;62.50;;;;;;6143345;29;20051;-52
2022/12/30 16:50:04;;;;;;;0.10;0.10;;;21.90;62.70;;;;;;6140412;29;19958;-52
2022/12/30 16:53:05;;;;;;;0.10;0.10;;;21.70;62.50;;;;;;6139676;29;20055;-53
2022/12/30 16:56:06;;;;;;;;;;;21.70;62.50;;;;;;6138021;29;20048;-50
2022/12/30 16:59:09;;;;;;;0.10;0.10;;;21.60;62.50;;;;;;6134405;29;20018;-51
2022/12/30 17:02:19;;;;;;;0.20;0.20;;;21.60;62.40;;;;;;6134812;29;20059;-51
2022/12/30 17:05:23;;;;;;;0.10;0.10;;;21.60;62.50;;;;;;6135414;29;20046;-53
2022/12/30 17:08:27;;;;;;;0.30;0.20;;;21.60;62.50;;;;;;6138576;29;20067;-49
2022/12/30 17:11:29;;;;;;;0.30;0.20;;;21.60;62.50;;;;;;6138649;29;20067;-51